createdAt,value
2024-01-25T00:00:10.169Z,24.20
2024-01-25T00:01:07.834Z,24.19
2024-01-25T00:02:07.886Z,24.19
2024-01-25T00:03:07.825Z,24.19
2024-01-25T00:04:08.057Z,24.21
2024-01-25T00:05:10.891Z,24.21
2024-01-25T00:06:07.957Z,24.19
2024-01-25T00:07:07.973Z,24.17
2024-01-25T00:08:07.914Z,24.17
2024-01-25T00:09:08.346Z,24.20
2024-01-25T00:10:07.982Z,24.19
2024-01-25T00:11:07.956Z,24.17
2024-01-25T00:12:07.942Z,24.19
2024-01-25T00:13:08.001Z,24.19
2024-01-25T00:14:07.978Z,24.19
2024-01-25T00:15:07.973Z,24.19
2024-01-25T00:16:08.089Z,24.19
2024-01-25T00:17:08.000Z,24.19
2024-01-25T00:18:08.031Z,24.20
2024-01-25T00:19:08.083Z,24.19
2024-01-25T00:20:08.208Z,24.17
2024-01-25T00:21:08.041Z,24.19
2024-01-25T00:22:08.097Z,24.20
2024-01-25T00:23:08.046Z,24.19
2024-01-25T00:24:08.060Z,24.20
2024-01-25T00:25:08.105Z,24.16
2024-01-25T00:26:08.116Z,24.17
2024-01-25T00:27:08.149Z,24.19
2024-01-25T00:28:08.228Z,24.16
2024-01-25T00:29:08.205Z,24.19
2024-01-25T00:30:08.227Z,24.19
2024-01-25T00:31:08.239Z,24.17
2024-01-25T00:32:08.227Z,24.15
2024-01-25T00:33:08.374Z,24.17
2024-01-25T00:34:09.449Z,24.16
2024-01-25T00:35:08.436Z,24.13
2024-01-25T00:36:08.299Z,24.15
2024-01-25T00:37:08.365Z,24.17
2024-01-25T00:38:08.301Z,24.17
2024-01-25T00:39:09.410Z,24.17
2024-01-25T00:40:08.327Z,24.16
2024-01-25T00:41:08.321Z,24.19
2024-01-25T00:42:08.323Z,24.17
2024-01-25T00:43:08.367Z,24.17
2024-01-25T00:44:10.864Z,24.15
2024-01-25T00:45:08.355Z,24.15
2024-01-25T00:46:08.387Z,24.16
2024-01-25T00:47:08.369Z,24.17
2024-01-25T00:48:08.439Z,24.13
2024-01-25T00:49:09.951Z,24.12
2024-01-25T00:50:08.611Z,24.13
2024-01-25T00:51:08.349Z,24.15
2024-01-25T00:52:08.418Z,24.15
2024-01-25T00:53:08.371Z,24.15
2024-01-25T00:54:08.406Z,24.16
2024-01-25T00:55:08.459Z,24.15
2024-01-25T00:56:08.392Z,24.17
2024-01-25T00:57:08.403Z,24.16
2024-01-25T00:58:08.420Z,24.17
2024-01-25T00:59:08.560Z,24.16
2024-01-25T01:00:08.428Z,24.16
2024-01-25T01:01:08.507Z,24.16
2024-01-25T01:02:09.471Z,24.19
2024-01-25T01:03:08.420Z,24.17
2024-01-25T01:04:08.499Z,24.16
2024-01-25T01:05:08.595Z,24.13
2024-01-25T01:06:08.513Z,24.16
2024-01-25T01:07:08.554Z,24.16
2024-01-25T01:08:08.612Z,24.13
2024-01-25T01:09:08.467Z,24.17
2024-01-25T01:10:09.491Z,24.15
2024-01-25T01:11:08.477Z,24.15
2024-01-25T01:12:08.500Z,24.13
2024-01-25T01:13:08.600Z,24.16
2024-01-25T01:14:08.548Z,24.12
2024-01-25T01:15:08.513Z,24.13
2024-01-25T01:16:08.530Z,24.16
2024-01-25T01:17:08.520Z,24.13
2024-01-25T01:18:08.621Z,24.13
2024-01-25T01:19:09.038Z,24.13
2024-01-25T01:20:08.679Z,24.15
2024-01-25T01:21:08.564Z,24.15
2024-01-25T01:22:08.595Z,24.13
2024-01-25T01:23:08.566Z,24.13
2024-01-25T01:24:08.594Z,24.15
2024-01-25T01:25:08.609Z,24.16
2024-01-25T01:26:08.612Z,24.10
2024-01-25T01:27:08.602Z,24.13
2024-01-25T01:28:08.768Z,24.13
2024-01-25T01:29:08.645Z,24.15
2024-01-25T01:30:08.662Z,24.13
2024-01-25T01:31:08.696Z,24.15
2024-01-25T01:32:08.629Z,24.13
2024-01-25T01:33:08.719Z,24.15
2024-01-25T01:34:08.833Z,24.13
2024-01-25T01:35:08.909Z,24.17
2024-01-25T01:36:08.672Z,24.16
2024-01-25T01:37:08.773Z,24.15
2024-01-25T01:38:08.665Z,24.12
2024-01-25T01:39:08.666Z,24.12
2024-01-25T01:40:08.729Z,24.13
2024-01-25T01:41:08.722Z,24.13
2024-01-25T01:42:08.789Z,24.13
2024-01-25T01:43:08.845Z,24.15
2024-01-25T01:44:08.779Z,24.12
2024-01-25T01:45:08.789Z,24.13
2024-01-25T01:46:08.797Z,24.15
2024-01-25T01:47:08.921Z,24.15
2024-01-25T01:48:08.979Z,24.16
2024-01-25T01:49:08.965Z,24.15
2024-01-25T01:50:08.980Z,24.12
2024-01-25T01:51:08.913Z,24.13
2024-01-25T01:52:08.863Z,24.16
2024-01-25T01:53:08.841Z,24.12
2024-01-25T01:54:08.857Z,24.13
2024-01-25T01:55:08.978Z,24.09
2024-01-25T01:56:08.893Z,24.10
2024-01-25T01:57:08.920Z,24.13
2024-01-25T01:58:09.000Z,24.15
2024-01-25T01:59:08.952Z,24.13
2024-01-25T02:00:08.971Z,24.16
2024-01-25T02:01:09.088Z,24.15
2024-01-25T02:02:09.092Z,24.13
2024-01-25T02:03:09.105Z,24.15
2024-01-25T02:04:09.216Z,24.12
2024-01-25T02:05:09.127Z,24.12
2024-01-25T02:06:09.101Z,24.13
2024-01-25T02:07:09.196Z,24.15
2024-01-25T02:08:09.117Z,24.15
2024-01-25T02:09:09.138Z,24.13
2024-01-25T02:10:09.186Z,24.12
2024-01-25T02:11:09.140Z,24.13
2024-01-25T02:12:09.168Z,24.16
2024-01-25T02:13:09.179Z,24.15
2024-01-25T02:14:09.152Z,24.15
2024-01-25T02:15:09.226Z,24.15
2024-01-25T02:16:09.212Z,24.10
2024-01-25T02:17:09.225Z,24.10
2024-01-25T02:18:09.188Z,24.16
2024-01-25T02:19:09.309Z,24.10
2024-01-25T02:20:09.329Z,24.13
2024-01-25T02:21:09.206Z,24.09
2024-01-25T02:22:09.402Z,24.12
2024-01-25T02:23:09.219Z,24.13
2024-01-25T02:24:09.215Z,24.13
2024-01-25T02:25:09.287Z,24.13
2024-01-25T02:26:09.234Z,24.13
2024-01-25T02:27:09.241Z,24.13
2024-01-25T02:28:09.320Z,24.13
2024-01-25T02:29:09.254Z,24.13
2024-01-25T02:30:09.264Z,24.08
2024-01-25T02:31:09.305Z,24.10
2024-01-25T02:32:09.306Z,24.13
2024-01-25T02:33:09.461Z,24.13
2024-01-25T02:34:09.564Z,24.15
2024-01-25T02:35:09.526Z,24.13
2024-01-25T02:36:09.391Z,24.13
2024-01-25T02:37:09.476Z,24.12
2024-01-25T02:38:09.381Z,24.10
2024-01-25T02:39:09.390Z,24.10
2024-01-25T02:40:09.460Z,24.12
2024-01-25T02:41:09.393Z,24.12
2024-01-25T02:42:09.394Z,24.12
2024-01-25T02:43:09.474Z,24.16
2024-01-25T02:44:09.389Z,24.13
2024-01-25T02:45:09.394Z,24.13
2024-01-25T02:46:09.459Z,24.13
2024-01-25T02:47:09.392Z,24.10
2024-01-25T02:48:09.505Z,24.12
2024-01-25T02:49:09.730Z,24.12
2024-01-25T02:50:09.555Z,24.13
2024-01-25T02:51:09.526Z,24.13
2024-01-25T02:52:09.617Z,24.13
2024-01-25T02:53:09.639Z,24.12
2024-01-25T02:54:09.655Z,24.15
2024-01-25T02:55:09.826Z,24.15
2024-01-25T02:56:09.679Z,24.15
2024-01-25T02:57:09.705Z,24.15
2024-01-25T02:58:09.758Z,24.15
2024-01-25T02:59:09.700Z,24.13
2024-01-25T03:00:09.715Z,24.13
2024-01-25T03:01:09.810Z,24.13
2024-01-25T03:02:09.836Z,24.12
2024-01-25T03:03:09.728Z,24.12
2024-01-25T03:04:09.825Z,24.12
2024-01-25T03:05:09.869Z,24.13
2024-01-25T03:06:09.814Z,24.15
2024-01-25T03:07:09.825Z,24.13
2024-01-25T03:08:09.775Z,24.12
2024-01-25T03:09:09.764Z,24.17
2024-01-25T03:10:09.785Z,24.13
2024-01-25T03:11:09.859Z,24.15
2024-01-25T03:12:09.848Z,24.13
2024-01-25T03:13:09.987Z,24.15
2024-01-25T03:14:09.938Z,24.10
2024-01-25T03:15:09.973Z,24.10
2024-01-25T03:16:10.081Z,24.12
2024-01-25T03:17:10.049Z,24.12
2024-01-25T03:18:10.197Z,24.12
2024-01-25T03:19:10.229Z,24.09
2024-01-25T03:20:10.406Z,24.09
2024-01-25T03:21:10.247Z,24.15
2024-01-25T03:22:10.347Z,24.13
2024-01-25T03:23:10.324Z,24.13
2024-01-25T03:24:10.378Z,24.12
2024-01-25T03:25:10.489Z,24.10
2024-01-25T03:26:10.441Z,24.10
2024-01-25T03:27:10.421Z,24.15
2024-01-25T03:28:10.452Z,24.10
2024-01-25T03:29:10.433Z,24.13
2024-01-25T03:30:10.440Z,24.10
2024-01-25T03:31:10.473Z,24.10
2024-01-25T03:32:10.443Z,24.10
2024-01-25T03:33:10.513Z,24.09
2024-01-25T03:34:10.675Z,24.08
2024-01-25T03:35:10.828Z,24.08
2024-01-25T03:36:10.434Z,24.12
2024-01-25T03:37:10.509Z,24.13
2024-01-25T03:38:10.464Z,24.13
2024-01-25T03:39:10.477Z,24.12
2024-01-25T03:40:11.318Z,24.12
2024-01-25T03:41:10.522Z,24.10
2024-01-25T03:42:10.571Z,24.12
2024-01-25T03:43:18.906Z,24.10
2024-01-25T03:44:11.615Z,24.09
2024-01-25T03:45:10.616Z,24.09
2024-01-25T03:46:10.674Z,24.12
2024-01-25T03:47:10.623Z,24.12
2024-01-25T03:48:10.694Z,24.10
2024-01-25T03:49:10.733Z,24.10
2024-01-25T03:50:10.729Z,24.10
2024-01-25T03:51:10.605Z,24.10
2024-01-25T03:52:10.607Z,24.12
2024-01-25T03:53:10.640Z,24.10
2024-01-25T03:54:10.628Z,24.10
2024-01-25T03:55:10.649Z,24.09
2024-01-25T03:56:10.598Z,24.10
2024-01-25T03:57:10.673Z,24.12
2024-01-25T03:58:10.690Z,24.12
2024-01-25T03:59:10.648Z,24.12
2024-01-25T04:00:10.670Z,24.06
2024-01-25T04:01:10.806Z,24.10
2024-01-25T04:02:10.736Z,24.08
2024-01-25T04:03:10.740Z,24.12
2024-01-25T04:04:10.765Z,24.10
2024-01-25T04:05:12.018Z,24.10
2024-01-25T04:06:10.759Z,24.08
2024-01-25T04:07:10.707Z,24.09
2024-01-25T04:08:10.672Z,24.10
2024-01-25T04:09:10.675Z,24.08
2024-01-25T04:10:10.951Z,24.10
2024-01-25T04:11:10.692Z,24.08
2024-01-25T04:12:10.708Z,24.12
2024-01-25T04:13:10.765Z,24.13
2024-01-25T04:14:19.738Z,24.09
2024-01-25T04:15:18.789Z,24.09
2024-01-25T04:16:18.044Z,24.09
2024-01-25T04:17:18.010Z,24.08
2024-01-25T04:18:18.140Z,24.10
2024-01-25T04:19:18.137Z,24.09
2024-01-25T04:20:24.113Z,24.09
2024-01-25T04:21:18.021Z,24.09
2024-01-25T04:22:18.173Z,24.06
2024-01-25T04:23:18.040Z,24.08
2024-01-25T04:24:18.029Z,24.09
2024-01-25T04:25:19.116Z,24.08
2024-01-25T04:26:18.005Z,24.09
2024-01-25T04:27:17.989Z,24.06
2024-01-25T04:28:18.033Z,24.09
2024-01-25T04:29:17.994Z,24.08
2024-01-25T04:30:18.193Z,24.09
2024-01-25T04:31:26.672Z,24.09
2024-01-25T04:32:25.777Z,24.05
2024-01-25T04:33:25.809Z,24.06
2024-01-25T04:34:25.877Z,24.06
2024-01-25T04:35:26.310Z,24.08
2024-01-25T04:36:25.759Z,24.09
2024-01-25T04:37:25.798Z,24.08
2024-01-25T04:38:25.756Z,24.09
2024-01-25T04:39:25.776Z,24.08
2024-01-25T04:40:25.914Z,24.10
2024-01-25T04:41:25.811Z,24.08
2024-01-25T04:42:25.807Z,24.09
2024-01-25T04:43:25.845Z,24.08
2024-01-25T04:44:25.867Z,24.08
2024-01-25T04:59:44.493Z,24.08
2024-01-25T05:00:25.761Z,24.06
2024-01-25T05:04:27.407Z,24.05
2024-01-25T05:05:25.888Z,24.08
2024-01-25T05:06:25.770Z,24.10
2024-01-25T05:07:29.936Z,24.08
2024-01-25T05:08:26.833Z,24.08
2024-01-25T05:09:25.782Z,24.08
2024-01-25T05:10:25.886Z,24.08
2024-01-25T05:11:25.818Z,24.09
2024-01-25T05:12:25.830Z,24.09
2024-01-25T05:13:25.869Z,24.08
2024-01-25T05:14:25.821Z,24.06
2024-01-25T05:15:25.837Z,24.08
2024-01-25T05:16:25.956Z,24.06
2024-01-25T05:17:25.935Z,24.08
2024-01-25T05:18:25.911Z,24.09
2024-01-25T05:19:25.931Z,24.09
2024-01-25T05:20:26.028Z,24.08
2024-01-25T05:21:25.858Z,24.09
2024-01-25T05:22:25.894Z,24.08
2024-01-25T05:23:25.919Z,24.10
2024-01-25T05:24:25.958Z,24.10
2024-01-25T05:25:26.026Z,24.10
2024-01-25T05:26:26.044Z,24.09
2024-01-25T05:27:26.086Z,24.09
2024-01-25T05:28:26.298Z,24.08
2024-01-25T05:29:26.192Z,24.10
2024-01-25T05:30:26.259Z,24.09
2024-01-25T05:31:26.373Z,24.08
2024-01-25T05:32:26.340Z,24.06
2024-01-25T05:33:26.455Z,24.05
2024-01-25T05:34:26.612Z,24.06
2024-01-25T05:35:26.524Z,24.06
2024-01-25T05:36:26.466Z,24.09
2024-01-25T05:37:26.482Z,24.06
2024-01-25T05:38:26.471Z,24.08
2024-01-25T05:39:26.477Z,24.08
2024-01-25T05:40:26.626Z,24.06
2024-01-25T05:41:26.491Z,24.05
2024-01-25T05:42:26.498Z,24.05
2024-01-25T05:43:26.605Z,24.03
2024-01-25T05:44:26.535Z,24.03
2024-01-25T05:45:26.524Z,24.06
2024-01-25T05:46:26.633Z,24.05
2024-01-25T05:47:26.601Z,24.05
2024-01-25T05:48:26.679Z,24.06
2024-01-25T05:49:26.729Z,24.10
2024-01-25T05:50:26.693Z,24.05
2024-01-25T05:51:26.570Z,24.06
2024-01-25T05:52:26.767Z,24.09
2024-01-25T05:53:26.573Z,24.08
2024-01-25T05:54:26.614Z,24.05
2024-01-25T05:55:26.674Z,24.06
2024-01-25T05:56:26.599Z,24.06
2024-01-25T05:57:26.619Z,24.06
2024-01-25T05:58:26.826Z,24.08
2024-01-25T05:59:26.620Z,24.05
2024-01-25T06:00:26.639Z,24.06
2024-01-25T06:01:26.695Z,24.06
2024-01-25T06:02:26.787Z,24.05
2024-01-25T06:03:26.703Z,24.06
2024-01-25T06:04:26.761Z,24.06
2024-01-25T06:05:26.910Z,24.05
2024-01-25T06:06:26.841Z,24.03
2024-01-25T06:07:26.777Z,24.03
2024-01-25T06:08:26.768Z,24.00
2024-01-25T06:09:26.734Z,24.06
2024-01-25T06:10:26.992Z,24.08
2024-01-25T06:11:26.699Z,24.05
2024-01-25T06:12:26.790Z,24.05
2024-01-25T06:13:26.740Z,24.05
2024-01-25T06:14:26.695Z,24.03
2024-01-25T06:15:26.713Z,24.02
2024-01-25T06:16:26.775Z,24.08
2024-01-25T06:17:26.811Z,24.05
2024-01-25T06:18:26.835Z,24.05
2024-01-25T06:19:26.862Z,24.05
2024-01-25T06:20:26.986Z,24.08
2024-01-25T06:21:26.751Z,24.06
2024-01-25T06:22:26.804Z,24.06
2024-01-25T06:23:26.786Z,24.10
2024-01-25T06:24:26.781Z,24.08
2024-01-25T06:25:26.898Z,24.09
2024-01-25T06:26:26.784Z,24.08
2024-01-25T06:27:26.792Z,24.06
2024-01-25T06:28:26.923Z,24.08
2024-01-25T06:29:26.821Z,24.06
2024-01-25T06:30:26.804Z,24.12
2024-01-25T06:31:26.967Z,24.15
2024-01-25T06:32:27.349Z,24.12
2024-01-25T06:33:26.859Z,24.08
2024-01-25T06:34:26.993Z,24.09
2024-01-25T06:35:27.112Z,24.09
2024-01-25T06:36:26.841Z,24.13
2024-01-25T06:37:26.839Z,24.13
2024-01-25T06:38:26.820Z,24.12
2024-01-25T06:39:26.826Z,24.16
2024-01-25T06:40:26.932Z,24.13
2024-01-25T06:41:26.841Z,24.15
2024-01-25T06:42:26.850Z,24.10
2024-01-25T06:43:26.971Z,24.17
2024-01-25T06:44:26.858Z,24.20
2024-01-25T06:45:26.880Z,24.19
2024-01-25T06:46:26.956Z,24.21
2024-01-25T06:47:26.843Z,24.23
2024-01-25T06:48:26.940Z,24.27
2024-01-25T06:49:26.991Z,24.24
2024-01-25T06:50:27.049Z,24.29
2024-01-25T06:51:26.834Z,24.33
2024-01-25T06:52:27.992Z,24.30
2024-01-25T06:53:26.909Z,24.36
2024-01-25T06:54:26.837Z,24.36
2024-01-25T06:55:26.870Z,24.38
2024-01-25T06:56:26.852Z,24.40
2024-01-25T06:57:26.880Z,24.38
2024-01-25T06:58:27.101Z,24.43
2024-01-25T06:59:26.927Z,24.43
2024-01-25T07:00:26.889Z,24.46
2024-01-25T07:01:26.900Z,24.47
2024-01-25T07:02:27.020Z,24.47
2024-01-25T07:03:26.909Z,24.50
2024-01-25T07:04:27.013Z,24.51
2024-01-25T07:05:26.853Z,24.51
2024-01-25T07:06:26.896Z,24.54
2024-01-25T07:07:26.845Z,24.58
2024-01-25T07:08:26.848Z,24.57
2024-01-25T07:09:26.821Z,24.61
2024-01-25T07:10:26.881Z,24.61
2024-01-25T07:11:26.819Z,24.64
2024-01-25T07:12:26.816Z,24.64
2024-01-25T07:13:26.918Z,24.65
2024-01-25T07:14:26.794Z,24.67
2024-01-25T07:15:26.822Z,24.70
2024-01-25T07:16:26.887Z,24.70
2024-01-25T07:17:26.785Z,24.71
2024-01-25T07:18:26.836Z,24.71
2024-01-25T07:19:26.906Z,24.72
2024-01-25T07:20:26.969Z,24.75
2024-01-25T07:21:26.793Z,24.74
2024-01-25T07:22:26.960Z,24.74
2024-01-25T07:23:26.895Z,24.78
2024-01-25T07:24:26.935Z,24.79
2024-01-25T07:25:28.086Z,24.82
2024-01-25T07:26:27.030Z,24.79
2024-01-25T07:27:27.079Z,24.82
2024-01-25T07:28:27.337Z,24.85
2024-01-25T07:29:27.205Z,24.84
2024-01-25T07:30:27.257Z,24.86
2024-01-25T07:31:27.437Z,24.84
2024-01-25T07:32:27.338Z,24.84
2024-01-25T07:33:27.545Z,24.84
2024-01-25T07:34:27.524Z,24.82
2024-01-25T07:35:27.567Z,24.86
2024-01-25T07:36:27.527Z,24.88
2024-01-25T07:37:27.610Z,24.91
2024-01-25T07:38:28.557Z,24.92
2024-01-25T07:39:27.694Z,24.92
2024-01-25T07:47:04.232Z,24.93
2024-01-25T07:47:27.580Z,24.98
2024-01-25T07:48:27.627Z,24.99
2024-01-25T07:49:27.666Z,24.98
2024-01-25T07:50:27.703Z,24.96
2024-01-25T07:51:27.525Z,24.98
2024-01-25T07:52:27.926Z,24.98
2024-01-25T07:53:27.487Z,24.99
2024-01-25T07:54:27.511Z,24.93
2024-01-25T07:55:27.520Z,24.95
2024-01-25T07:56:27.466Z,24.96
2024-01-25T07:57:27.464Z,24.95
2024-01-25T07:58:27.629Z,24.93
2024-01-25T07:59:27.445Z,24.92
2024-01-25T08:00:27.428Z,24.92
2024-01-25T08:01:27.449Z,24.92
2024-01-25T08:02:27.514Z,24.93
2024-01-25T08:03:27.440Z,24.92
2024-01-25T08:04:27.481Z,24.92
2024-01-25T08:05:34.444Z,24.92
2024-01-25T08:06:28.546Z,24.91
2024-01-25T08:07:27.550Z,24.93
2024-01-25T08:08:27.321Z,24.95
2024-01-25T08:09:27.323Z,24.91
2024-01-25T08:10:27.480Z,24.92
2024-01-25T08:11:27.287Z,24.93
2024-01-25T08:12:27.337Z,24.92
2024-01-25T08:13:27.335Z,24.91
2024-01-25T08:14:27.267Z,24.92
2024-01-25T08:15:27.339Z,24.92
2024-01-25T08:16:27.429Z,24.93
2024-01-25T08:17:27.567Z,24.93
2024-01-25T08:18:27.513Z,24.92
2024-01-25T08:19:27.603Z,24.91
2024-01-25T08:20:28.796Z,24.92
2024-01-25T08:21:27.601Z,24.92
2024-01-25T08:22:27.671Z,24.95
2024-01-25T08:23:27.669Z,24.96
2024-01-25T08:24:27.698Z,24.96
2024-01-25T08:25:28.308Z,24.96
2024-01-25T08:26:27.926Z,24.93
2024-01-25T08:27:27.868Z,24.99
2024-01-25T08:28:28.261Z,24.98
2024-01-25T08:29:28.011Z,25.03
2024-01-25T08:30:28.062Z,25.02
2024-01-25T08:31:28.212Z,25.05
2024-01-25T08:32:28.317Z,25.03
2024-01-25T08:33:28.506Z,25.03
2024-01-25T08:34:28.413Z,25.05
2024-01-25T08:35:28.574Z,25.05
2024-01-25T08:36:28.417Z,25.05
2024-01-25T08:37:28.528Z,25.06
2024-01-25T08:38:29.081Z,25.09
2024-01-25T08:39:28.525Z,25.12
2024-01-25T08:44:43.373Z,25.09
2024-01-25T08:45:28.439Z,25.06
2024-01-25T08:46:28.514Z,25.02
2024-01-25T08:47:28.727Z,24.98
2024-01-25T08:48:28.587Z,24.91
2024-01-25T08:49:28.569Z,24.88
2024-01-25T08:50:28.521Z,24.82
2024-01-25T08:51:28.407Z,24.77
2024-01-25T08:52:28.571Z,24.68
2024-01-25T08:53:28.497Z,24.65
2024-01-25T08:54:28.409Z,24.61
2024-01-25T08:55:28.496Z,24.55
2024-01-25T08:56:28.503Z,24.51
2024-01-25T08:57:28.520Z,24.47
2024-01-25T08:58:28.555Z,24.43
2024-01-25T08:59:28.467Z,24.41
2024-01-25T09:00:28.434Z,24.41
2024-01-25T09:01:28.637Z,24.37
2024-01-25T09:02:28.603Z,24.37
2024-01-25T09:03:28.455Z,24.36
2024-01-25T09:04:28.520Z,24.36
2024-01-25T09:05:28.684Z,24.37
2024-01-25T09:06:28.497Z,24.34
2024-01-25T09:07:28.546Z,24.33
2024-01-25T09:08:28.660Z,24.33
2024-01-25T09:09:28.474Z,24.34
2024-01-25T09:10:28.511Z,24.33
2024-01-25T09:11:28.475Z,24.31
2024-01-25T09:12:28.470Z,24.30
2024-01-25T09:13:28.459Z,24.30
2024-01-25T09:14:28.469Z,24.30
2024-01-25T09:15:28.445Z,24.31
2024-01-25T09:16:28.574Z,24.31
2024-01-25T09:17:28.515Z,24.29
2024-01-25T09:18:28.558Z,24.33
2024-01-25T09:19:28.629Z,24.34
2024-01-25T09:20:28.549Z,24.37
2024-01-25T09:21:28.458Z,24.38
2024-01-25T09:22:28.526Z,24.40
2024-01-25T09:23:28.430Z,24.43
2024-01-25T09:24:28.398Z,24.46
2024-01-25T09:25:28.466Z,24.48
2024-01-25T09:26:28.381Z,24.47
2024-01-25T09:27:28.456Z,24.51
2024-01-25T09:28:28.474Z,24.53
2024-01-25T09:29:28.443Z,24.58
2024-01-25T09:30:28.470Z,24.58
2024-01-25T09:31:28.543Z,24.58
2024-01-25T09:32:28.491Z,24.58
2024-01-25T09:33:28.560Z,24.61
2024-01-25T09:34:28.574Z,24.64
2024-01-25T09:35:28.492Z,24.65
2024-01-25T09:36:28.498Z,24.38
2024-01-25T09:37:28.618Z,23.82
2024-01-25T09:38:28.525Z,23.68
2024-01-25T09:39:29.087Z,23.61
2024-01-25T09:40:29.269Z,23.47
2024-01-25T09:41:28.733Z,23.43
2024-01-25T09:42:28.738Z,23.50
2024-01-25T09:43:28.937Z,23.51
2024-01-25T09:44:28.871Z,23.48
2024-01-25T09:45:29.146Z,23.50
2024-01-25T09:46:29.104Z,23.51
2024-01-25T09:47:29.065Z,23.27
2024-01-25T09:48:29.116Z,23.20
2024-01-25T09:49:29.250Z,23.07
2024-01-25T09:50:29.153Z,23.06
2024-01-25T09:51:29.617Z,23.06
2024-01-25T09:52:29.268Z,23.14
2024-01-25T09:53:29.083Z,23.16
2024-01-25T09:54:30.856Z,23.23
2024-01-25T09:55:29.235Z,23.28
2024-01-25T09:56:29.157Z,23.36
2024-01-25T09:57:29.215Z,23.44
2024-01-25T09:58:29.322Z,23.48
2024-01-25T09:59:29.296Z,23.55
2024-01-25T10:00:31.806Z,23.61
2024-01-25T10:01:29.403Z,23.65
2024-01-25T10:02:29.396Z,23.71
2024-01-25T10:03:29.329Z,23.78
2024-01-25T10:04:29.405Z,23.82
2024-01-25T10:05:29.455Z,23.89
2024-01-25T10:06:29.482Z,23.89
2024-01-25T10:07:29.420Z,23.93
2024-01-25T10:08:29.350Z,23.96
2024-01-25T10:09:29.272Z,24.02
2024-01-25T10:10:29.501Z,23.98
2024-01-25T10:11:29.279Z,23.76
2024-01-25T10:12:29.283Z,23.68
2024-01-25T10:13:30.360Z,23.68
2024-01-25T10:14:29.294Z,23.68
2024-01-25T10:15:29.281Z,23.71
2024-01-25T10:16:29.591Z,23.75
2024-01-25T10:17:46.568Z,23.79
2024-01-25T10:18:31.143Z,23.83
2024-01-25T10:19:29.572Z,23.86
2024-01-25T10:20:31.615Z,23.92
2024-01-25T10:21:29.449Z,23.96
2024-01-25T10:22:29.529Z,24.00
2024-01-25T10:23:29.407Z,24.02
2024-01-25T10:24:29.464Z,24.06
2024-01-25T10:25:29.443Z,24.09
2024-01-25T10:26:29.299Z,24.12
2024-01-25T10:27:29.265Z,24.15
2024-01-25T10:28:29.953Z,24.16
2024-01-25T10:29:29.289Z,24.15
2024-01-25T10:30:29.325Z,24.10
2024-01-25T10:31:29.335Z,24.13
2024-01-25T10:32:29.330Z,24.13
2024-01-25T10:33:29.466Z,24.13
2024-01-25T10:34:29.379Z,24.05
2024-01-25T10:35:29.733Z,24.03
2024-01-25T10:36:29.290Z,24.05
2024-01-25T10:37:29.395Z,24.06
2024-01-25T10:38:29.224Z,24.10
2024-01-25T10:39:29.219Z,24.12
2024-01-25T10:40:29.480Z,24.17
2024-01-25T10:41:29.695Z,24.13
2024-01-25T10:42:29.225Z,24.08
2024-01-25T10:43:29.274Z,23.91
2024-01-25T10:44:29.234Z,23.60
2024-01-25T10:45:29.322Z,23.51
2024-01-25T10:46:29.362Z,23.51
2024-01-25T10:47:29.457Z,23.51
2024-01-25T10:48:29.483Z,23.55
2024-01-25T10:49:29.632Z,23.64
2024-01-25T10:50:29.736Z,23.68
2024-01-25T10:51:29.642Z,23.69
2024-01-25T10:52:29.748Z,23.76
2024-01-25T10:53:29.653Z,23.83
2024-01-25T10:54:29.715Z,23.88
2024-01-25T10:55:29.832Z,23.93
2024-01-25T10:56:29.760Z,23.96
2024-01-25T10:57:29.768Z,23.98
2024-01-25T10:58:29.955Z,24.03
2024-01-25T10:59:29.800Z,24.08
2024-01-25T11:00:29.778Z,24.12
2024-01-25T11:01:29.892Z,24.15
2024-01-25T11:02:29.922Z,24.17
2024-01-25T11:03:29.847Z,24.19
2024-01-25T11:04:29.891Z,24.24
2024-01-25T11:05:29.912Z,24.29
2024-01-25T11:06:29.878Z,24.31
2024-01-25T11:07:29.775Z,24.33
2024-01-25T11:08:29.806Z,24.34
2024-01-25T11:09:29.782Z,24.38
2024-01-25T11:10:30.008Z,24.38
2024-01-25T11:11:29.701Z,24.44
2024-01-25T11:12:29.769Z,24.46
2024-01-25T11:13:29.850Z,24.48
2024-01-25T11:14:29.681Z,24.50
2024-01-25T11:15:29.692Z,24.54
2024-01-25T11:16:29.797Z,24.54
2024-01-25T11:17:29.775Z,24.55
2024-01-25T11:18:29.813Z,24.57
2024-01-25T11:19:29.778Z,24.57
2024-01-25T11:20:29.984Z,24.60
2024-01-25T11:21:29.781Z,24.63
2024-01-25T11:22:29.756Z,24.64
2024-01-25T11:23:29.589Z,24.67
2024-01-25T11:24:29.577Z,24.65
2024-01-25T11:25:29.715Z,24.68
2024-01-25T11:26:29.560Z,24.68
2024-01-25T11:27:29.566Z,24.74
2024-01-25T11:28:29.631Z,24.71
2024-01-25T11:29:29.530Z,24.71
2024-01-25T11:30:29.558Z,24.74
2024-01-25T11:31:30.089Z,24.72
2024-01-25T11:32:29.587Z,24.71
2024-01-25T11:33:29.612Z,24.74
2024-01-25T11:34:29.663Z,24.74
2024-01-25T11:35:29.685Z,24.72
2024-01-25T11:36:30.335Z,24.77
2024-01-25T11:37:29.685Z,24.78
2024-01-25T11:38:29.469Z,24.79
2024-01-25T11:39:29.429Z,24.81
2024-01-25T11:40:29.489Z,24.79
2024-01-25T11:41:29.416Z,24.78
2024-01-25T11:42:29.365Z,24.79
2024-01-25T11:43:29.383Z,24.81
2024-01-25T11:44:29.350Z,24.82
2024-01-25T11:45:29.329Z,24.85
2024-01-25T11:46:29.428Z,24.88
2024-01-25T11:47:29.409Z,24.85
2024-01-25T11:48:29.379Z,24.88
2024-01-25T11:49:29.383Z,24.86
2024-01-25T11:50:29.487Z,24.86
2024-01-25T11:51:29.266Z,24.86
2024-01-25T11:52:31.407Z,24.86
2024-01-25T11:53:29.301Z,24.84
2024-01-25T11:54:29.307Z,24.85
2024-01-25T11:55:29.442Z,24.82
2024-01-25T11:56:29.357Z,24.86
2024-01-25T11:57:29.328Z,24.88
2024-01-25T11:58:32.074Z,24.84
2024-01-25T11:59:29.304Z,24.86
2024-01-25T12:00:29.300Z,24.85
2024-01-25T12:01:29.362Z,24.89
2024-01-25T12:02:29.366Z,24.92
2024-01-25T12:03:29.230Z,24.92
2024-01-25T12:04:29.390Z,24.93
2024-01-25T12:05:29.362Z,24.95
2024-01-25T12:06:29.307Z,24.93
2024-01-25T12:07:29.280Z,24.95
2024-01-25T12:08:29.278Z,24.96
2024-01-25T12:09:29.144Z,24.99
2024-01-25T12:10:29.204Z,24.99
2024-01-25T12:11:29.182Z,25.02
2024-01-25T12:12:29.117Z,24.99
2024-01-25T12:13:29.215Z,25.01
2024-01-25T12:14:29.113Z,25.03
2024-01-25T12:15:29.196Z,25.06
2024-01-25T12:16:29.253Z,25.06
2024-01-25T12:17:29.360Z,25.13
2024-01-25T12:18:29.517Z,25.16
2024-01-25T12:19:29.515Z,25.15
2024-01-25T12:20:29.529Z,25.12
2024-01-25T12:21:29.504Z,25.15
2024-01-25T12:22:29.704Z,25.08
2024-01-25T12:23:29.540Z,25.18
2024-01-25T12:24:29.582Z,25.13
2024-01-25T12:25:29.686Z,25.18
2024-01-25T12:26:29.682Z,25.15
2024-01-25T12:27:29.731Z,25.13
2024-01-25T12:28:29.956Z,25.12
2024-01-25T12:29:29.774Z,25.13
2024-01-25T12:30:29.805Z,25.10
2024-01-25T12:31:30.044Z,25.13
2024-01-25T12:32:29.860Z,25.13
2024-01-25T12:33:29.907Z,25.16
2024-01-25T12:34:29.849Z,25.15
2024-01-25T12:35:29.833Z,25.15
2024-01-25T12:36:29.661Z,25.13
2024-01-25T12:37:29.721Z,25.10
2024-01-25T12:38:29.612Z,25.15
2024-01-25T12:39:29.642Z,25.13
2024-01-25T12:40:29.794Z,25.09
2024-01-25T12:41:29.693Z,25.09
2024-01-25T12:42:29.643Z,25.06
2024-01-25T12:43:29.632Z,25.06
2024-01-25T12:44:29.584Z,25.06
2024-01-25T12:45:29.649Z,25.03
2024-01-25T12:47:29.674Z,25.02
2024-01-25T12:48:29.526Z,25.01
2024-01-25T12:49:29.476Z,25.03
2024-01-25T12:50:29.442Z,25.05
2024-01-25T12:51:29.487Z,25.05
2024-01-25T12:52:29.391Z,25.05
2024-01-25T12:53:29.373Z,25.05
2024-01-25T12:54:29.382Z,25.03
2024-01-25T12:55:29.336Z,25.02
2024-01-25T12:56:29.303Z,25.01
2024-01-25T12:57:29.323Z,25.01
2024-01-25T12:58:29.295Z,25.01
2024-01-25T12:59:29.322Z,24.98
2024-01-25T13:00:29.394Z,24.98
2024-01-25T13:01:29.534Z,24.96
2024-01-25T13:02:29.473Z,24.98
2024-01-25T13:03:29.536Z,24.98
2024-01-25T13:04:29.614Z,24.98
2024-01-25T13:05:29.596Z,24.98
2024-01-25T13:06:29.665Z,24.96
2024-01-25T13:07:29.679Z,24.98
2024-01-25T13:08:29.756Z,24.98
2024-01-25T13:09:29.833Z,24.99
2024-01-25T13:10:29.813Z,24.98
2024-01-25T13:11:29.850Z,24.96
2024-01-25T13:12:29.875Z,24.96
2024-01-25T13:13:29.832Z,24.98
2024-01-25T13:14:29.826Z,24.98
2024-01-25T13:15:29.818Z,25.01
2024-01-25T13:16:29.981Z,24.96
2024-01-25T13:17:29.764Z,24.95
2024-01-25T13:18:29.821Z,24.95
2024-01-25T13:19:29.823Z,24.96
2024-01-25T13:20:29.739Z,24.96